TJBQ

Details ICAO TJBQ (BQN)
Name Aguadilla/Rafael Hernandez
Region USA (Puerto Rico)
Timezone America/Puerto_Rico (UTC-4.0)
Plans Departing 59
Arriving 70
Stats Elevation 237 ft / 72 m (AMSL)
Location 18.494825° -67.129216°
Runways 1
Magnetic Variation 12.738° W
Sunrise 2017-12-13 10:53:17 UTC / 2017-12-13 06:53:17 Local
Sunset 2017-12-13 21:55:09 UTC / 2017-12-13 17:55:09 Local
Advertisement - Login to hide

Runways

ID Width Length Bearing (true) Bearing (mag) Surface Threshold Offset Overrun Length
08 200 ft / 61 m 11,724 ft / 3,574 m 72.33° 85.07° Asphalt 400 ft / 122 m 768 ft / 234 m
26 200 ft / 61 m 11,724 ft / 3,574 m 252.34° 265.08° Asphalt 0 ft / 0 m 151 ft / 46 m

Map

Weather


0- 5 10 15 20 25 30 35+ Temperature / ° C

Clouds and Precipitation
Forecast for 2017-12-13 18:00 UTC. Updated 13 minutes ago

Ground ~20,000 ft ~40,000 ft Winds

METAR

TJBQ 131450Z 00000KT 10SM SCT033 SCT090 28/22 A3005

TAF

TAF TJBQ 131140Z 1312/1412 15005KT P6SM FEW060 FM131400 04008KT P6SM FEW025 FEW050 FM131730 01010KT P6SM VCSH SCT025 SCT050 FM132300 VRB05KT P6SM SCT060 AMD NOT SKED 1402/1411

Frequencies

Recorded 118.32 MHz ATIS
Clearance 120.87 MHz CLEARANCE DEL.
Tower 124.95 MHz TWR/CTAF
Approach 135.70 MHz SAN JUAN CNTR
Unicom 123.00 MHz UNICOM
Ground 120.87 MHz GROUND
Approach 118.15 MHz SAN JUAN CNTR
Warning: Do not use this data for real-world aviation or navigation. No guarantee of current accuracy is given.